Time;durP1;ratioP1;P1;durP2;ratioP2;P2;SDS_P1;SDS_P2;PMS_P1;PMS_P2;Temp;Humidity;BMP_temperature;BMP_pressure;BME280_temperature;BME280_humidity;BME280_pressure;Samples;Min_cycle;Max_cycle;Signal;HPM_P1;HPM_P2
2021/01/19 00:00:07;;;;;;;30.30;9.57;;;;;;;-13.54;72.44;101643.92;1764389;81;21450;-60
2021/01/19 00:02:36;;;;;;;;;;;;;;;-13.62;72.39;101645.00;1777925;80;21118;-58
2021/01/19 00:05:05;;;;;;;16.20;6.13;;;;;;;-13.70;72.55;101638.36;1794204;79;20211;-59
2021/01/19 00:07:32;;;;;;;34.13;10.20;;;;;;;-13.77;72.51;101646.41;1773784;80;21321;-59
2021/01/19 00:10:00;;;;;;;31.73;10.63;;;;;;;-13.84;72.43;101644.63;1762359;81;21053;-59
2021/01/19 00:12:28;;;;;;;22.37;6.83;;;;;;;-13.88;72.38;101654.19;1762352;81;21113;-59
2021/01/19 00:14:55;;;;;;;29.27;9.57;;;;;;;-13.92;72.21;101649.58;1793804;80;21077;-59
2021/01/19 00:17:23;;;;;;;23.33;8.20;;;;;;;-13.99;72.24;101655.05;1773761;80;21079;-59
2021/01/19 00:19:50;;;;;;;32.63;10.00;;;;;;;-14.02;72.44;101663.83;1762365;81;21345;-59
2021/01/19 00:22:18;;;;;;;24.93;8.57;;;;;;;-14.06;72.40;101655.31;1773708;80;21127;-59
2021/01/19 00:24:45;;;;;;;34.33;10.20;;;;;;;-14.11;72.36;101661.01;1762390;81;21046;-59
2021/01/19 00:27:13;;;;;;;28.50;10.73;;;;;;;-14.13;72.28;101657.41;1773787;80;21083;-59
2021/01/19 00:29:40;;;;;;;31.60;11.67;;;;;;;-14.16;72.16;101650.73;1762394;81;21030;-59
2021/01/19 00:32:08;;;;;;;31.23;9.07;;;;;;;-14.15;72.19;101654.19;1762413;81;21755;-59
2021/01/19 00:34:35;;;;;;;27.73;9.27;;;;;;;-14.13;72.10;101656.53;1793605;80;21105;-59
2021/01/19 00:37:03;;;;;;;26.70;8.87;;;;;;;-14.16;71.90;101652.02;1794176;79;20937;-59
2021/01/19 00:39:31;;;;;;;36.17;10.47;;;;;;;-14.19;71.80;101654.36;1795625;79;21056;-59
2021/01/19 00:41:58;;;;;;;33.97;10.43;;;;;;;-14.22;71.74;101652.83;1795734;79;21067;-59
2021/01/19 00:44:26;;;;;;;29.30;10.37;;;;;;;-14.27;71.75;101657.61;1795655;79;21328;-60
2021/01/19 00:46:53;;;;;;;25.63;7.90;;;;;;;-14.29;71.66;101653.09;1795655;79;21134;-59
2021/01/19 00:49:21;;;;;;;34.13;10.73;;;;;;;-14.31;71.71;101653.36;1795697;79;21074;-59
2021/01/19 00:51:49;;;;;;;27.37;9.33;;;;;;;-14.32;71.78;101656.72;1795713;79;21044;-59
2021/01/19 00:54:16;;;;;;;33.63;11.20;;;;;;;-14.29;71.63;101659.16;1795821;79;21641;-59
2021/01/19 00:56:44;;;;;;;27.27;8.07;;;;;;;-14.32;71.42;101663.16;1795741;79;21365;-59
2021/01/19 00:59:13;;;;;;;28.43;8.80;;;;;;;-14.35;71.37;101666.78;1795596;79;21195;-59
2021/01/19 01:01:48;;;;;;;29.87;10.87;;;;;;;-14.40;71.32;101658.67;1795637;79;21013;-59
2021/01/19 01:04:16;;;;;;;30.50;9.63;;;;;;;-14.45;71.34;101663.48;1805867;78;21115;-59
2021/01/19 01:06:43;;;;;;;33.00;11.07;;;;;;;-14.47;71.51;101652.53;1824993;78;21048;-59
2021/01/19 01:09:11;;;;;;;33.53;11.30;;;;;;;-14.48;71.42;101652.90;1825071;78;21482;-59
2021/01/19 01:11:43;;;;;;;32.33;9.80;;;;;;;-14.52;71.33;101652.14;1825010;78;21072;-59
2021/01/19 01:14:11;;;;;;;38.57;11.13;;;;;;;-14.56;71.20;101652.68;1825193;78;21075;-59
2021/01/19 01:16:40;;;;;;;35.17;11.33;;;;;;;-14.61;71.16;101641.11;1825241;78;21040;-59
2021/01/19 01:19:09;;;;;;;25.43;8.73;;;;;;;-14.67;71.16;101640.22;1825315;78;21437;-59
2021/01/19 01:21:41;;;;;;;39.03;12.40;;;;;;;-14.77;71.77;101645.45;1825214;78;21188;-59
2021/01/19 01:24:10;;;;;;;;;;;;;;;-14.87;72.15;101640.81;1827885;78;21056;-59
2021/01/19 01:26:38;;;;;;;34.43;8.87;;;;;;;-14.90;72.58;101643.55;1825406;78;20137;-59
2021/01/19 01:29:06;;;;;;;36.20;11.03;;;;;;;-14.97;72.64;101645.59;1825125;78;21127;-59
2021/01/19 01:31:35;;;;;;;26.00;8.37;;;;;;;-14.97;72.81;101650.73;1825263;78;21127;-59
2021/01/19 01:34:03;;;;;;;38.93;10.87;;;;;;;-14.96;72.83;101652.94;1825042;78;21135;-59
2021/01/19 01:36:42;;;;;;;35.83;9.67;;;;;;;-14.97;72.85;101648.16;1825199;78;21496;-59
2021/01/19 01:39:09;;;;;;;36.00;10.67;;;;;;;-14.95;73.02;101647.39;1789764;80;21124;-59
2021/01/19 01:41:38;;;;;;;26.40;9.43;;;;;;;-14.95;73.08;101648.67;1789571;80;21159;-59
2021/01/19 01:44:05;;;;;;;38.40;11.63;;;;;;;-14.97;73.09;101661.03;1789725;80;21135;-59
2021/01/19 01:46:37;;;;;;;30.53;9.67;;;;;;;-14.96;73.11;101661.95;1789634;80;22362;-60
2021/01/19 01:49:05;;;;;;;33.20;10.23;;;;;;;-14.97;72.85;101659.74;1789659;80;21162;-60
2021/01/19 01:51:33;;;;;;;33.03;9.83;;;;;;;-15.00;72.54;101665.93;1789657;80;21068;-61
2021/01/19 01:54:01;;;;;;;35.90;12.17;;;;;;;-15.02;72.52;101671.74;1789645;80;21076;-59
2021/01/19 01:56:29;;;;;;;35.37;11.17;;;;;;;-15.04;72.44;101671.60;1789604;80;21052;-59
2021/01/19 01:58:56;;;;;;;27.20;9.10;;;;;;;-15.00;72.43;101669.79;1789678;80;21186;-59
2021/01/19 02:01:24;;;;;;;32.37;10.70;;;;;;;-14.95;72.16;101667.98;1789567;80;21202;-59
2021/01/19 02:03:54;;;;;;;24.93;9.53;;;;;;;-14.96;71.85;101665.81;1789489;80;21079;-58
2021/01/19 02:06:21;;;;;;;32.73;9.43;;;;;;;-15.01;71.65;101671.85;1789687;80;21491;-58
2021/01/19 02:09:09;;;;;;;31.27;10.37;;;;;;;-15.04;71.51;101669.03;1789643;80;21041;-59
2021/01/19 02:11:43;;;;;;;37.60;10.13;;;;;;;-15.04;71.23;101670.31;1789795;80;21701;-59
2021/01/19 02:14:15;;;;;;;23.57;6.95;;;;;;;-15.07;70.87;101666.20;1789674;80;21083;-60
2021/01/19 02:17:26;;;;;;;27.90;7.77;;;;;;;-15.15;70.39;101665.93;1789652;80;21499;-60
2021/01/19 02:20:32;;;;;;;32.57;10.97;;;;;;;-15.22;70.35;101667.48;1789701;80;21068;-59
2021/01/19 02:23:19;;;;;;;34.90;11.67;;;;;;;-15.27;70.42;101669.30;1789604;80;21064;-60
2021/01/19 02:26:24;;;;;;;31.30;8.30;;;;;;;-15.23;70.26;101670.83;1789709;80;21427;-60
2021/01/19 02:28:54;;;;;;;30.32;10.45;;;;;;;-15.27;69.93;101669.66;1788840;80;21125;-60
2021/01/19 02:31:45;;;;;;;35.10;10.80;;;;;;;-15.35;69.79;101674.19;1789583;80;21595;-59
2021/01/19 02:34:24;;;;;;;26.67;8.70;;;;;;;-15.38;69.83;101676.88;1778958;80;21071;-59
2021/01/19 02:37:11;;;;;;;32.33;9.17;;;;;;;-15.37;69.89;101672.25;1793431;78;21118;-59
2021/01/19 02:39:51;;;;;;;27.77;9.53;;;;;;;-15.39;69.74;101673.39;1822100;78;21745;-59
2021/01/19 02:42:23;;;;;;;31.83;10.23;;;;;;;-15.43;69.58;101679.05;1821848;78;20980;-60
2021/01/19 02:44:51;;;;;;;33.13;10.47;;;;;;;-15.49;69.40;101672.11;1822085;78;21500;-59
2021/01/19 02:47:18;;;;;;;28.27;9.70;;;;;;;-15.55;69.29;101665.69;1790604;78;21144;-59
2021/01/19 02:49:46;;;;;;;29.27;10.07;;;;;;;-15.59;69.17;101664.88;1822024;78;21132;-59
2021/01/19 02:52:14;;;;;;;31.07;10.17;;;;;;;-15.62;69.42;101668.88;1822094;78;21192;-59
2021/01/19 02:54:42;;;;;;;29.07;8.13;;;;;;;-15.64;69.47;101662.30;1822037;78;21627;-60
2021/01/19 02:57:54;;;;;;;29.37;9.80;;;;;;;-15.64;69.44;101662.30;1822024;78;21137;-59
2021/01/19 03:00:25;;;;;;;40.87;10.23;;;;;;;-15.66;69.43;101663.85;1821999;78;21084;-59
2021/01/19 03:02:52;;;;;;;31.10;9.37;;;;;;;-15.65;69.46;101673.36;1790294;78;21044;-59
2021/01/19 03:05:20;;;;;;;30.47;10.73;;;;;;;-15.64;69.54;101661.42;1821930;78;22462;-60
2021/01/19 03:07:48;;;;;;;34.27;10.57;;;;;;;-15.63;69.62;101662.82;1821838;78;20993;-61
2021/01/19 03:10:16;;;;;;;42.93;12.27;;;;;;;-15.59;69.65;101661.42;1821991;78;21095;-59
2021/01/19 03:12:46;;;;;;;35.00;10.37;;;;;;;-15.55;69.74;101660.54;1822008;78;21480;-60
2021/01/19 03:15:16;;;;;;;28.13;9.80;;;;;;;-15.47;69.90;101649.98;1821993;78;21555;-59
2021/01/19 03:17:43;;;;;;;29.40;10.60;;;;;;;-15.41;69.66;101629.92;1821925;78;21499;-60
2021/01/19 03:20:14;;;;;;;35.17;10.10;;;;;;;-15.46;69.40;101635.98;1821930;78;21076;-60
2021/01/19 03:22:41;;;;;;;35.63;11.33;;;;;;;-15.50;69.25;101644.59;1821940;78;21048;-59
2021/01/19 03:25:09;;;;;;;37.37;11.23;;;;;;;-15.53;69.40;101639.20;1822028;78;21178;-60
2021/01/19 03:27:38;;;;;;;37.40;11.83;;;;;;;-15.52;69.53;101641.88;1821905;78;21115;-60
2021/01/19 03:30:08;;;;;;;36.67;11.50;;;;;;;-15.47;69.71;101639.70;1821956;78;21355;-59
2021/01/19 03:32:35;;;;;;;30.77;10.27;;;;;;;-15.41;69.72;101641.50;1821962;78;21527;-61
2021/01/19 03:35:05;;;;;;;36.27;12.00;;;;;;;-15.37;69.72;101638.41;1821942;78;21044;-61
2021/01/19 03:37:32;;;;;;;34.43;10.00;;;;;;;-15.34;69.65;101634.83;1811417;78;21099;-60
2021/01/19 03:40:04;;;;;;;29.40;9.57;;;;;;;-15.29;69.40;101634.83;1764321;81;21053;-60
2021/01/19 03:42:32;;;;;;;36.47;10.50;;;;;;;-15.33;69.00;101638.28;1764333;81;21468;-60
2021/01/19 03:44:59;;;;;;;30.87;10.63;;;;;;;-15.37;69.05;101640.09;1775688;80;21075;-60
2021/01/19 03:47:27;;;;;;;35.40;10.27;;;;;;;-15.37;69.11;101642.27;1764331;81;21105;-60
2021/01/19 03:49:54;;;;;;;35.00;9.27;;;;;;;-15.36;69.01;101647.95;1764229;81;21191;-59
2021/01/19 03:52:23;;;;;;;27.43;10.27;;;;;;;-15.37;68.71;101651.67;1795804;79;21049;-60
2021/01/19 03:54:51;;;;;;;38.13;11.03;;;;;;;-15.44;68.46;101646.39;1795683;79;22078;-60
2021/01/19 03:57:18;;;;;;;28.97;10.93;;;;;;;-15.52;68.34;101653.85;1795811;79;21116;-60
2021/01/19 03:59:46;;;;;;;27.33;9.43;;;;;;;-15.59;68.40;101646.00;1775942;80;21527;-60
2021/01/19 04:02:13;;;;;;;25.73;8.30;;;;;;;-15.63;68.50;101648.68;1764312;81;21037;-60
2021/01/19 04:04:40;;;;;;;22.90;8.33;;;;;;;-15.67;68.49;101641.48;1776884;80;21233;-60
2021/01/19 04:07:08;;;;;;;37.03;9.90;;;;;;;-15.72;68.52;101645.34;1764374;81;21508;-60
2021/01/19 04:09:36;;;;;;;30.10;10.47;;;;;;;-15.75;68.61;101645.97;1776862;80;21197;-59
2021/01/19 04:12:04;;;;;;;31.87;9.60;;;;;;;-15.75;68.84;101648.94;1764260;81;21148;-59
2021/01/19 04:14:32;;;;;;;31.90;10.37;;;;;;;-15.68;68.99;101654.23;1764293;81;21144;-59
2021/01/19 04:16:59;;;;;;;29.90;9.90;;;;;;;-15.63;69.03;101653.83;1776801;80;21114;-61
2021/01/19 04:19:27;;;;;;;30.00;9.77;;;;;;;-15.58;69.07;101655.14;1764314;81;21144;-60
2021/01/19 04:21:54;;;;;;;32.17;9.80;;;;;;;-15.49;69.05;101661.42;1776621;80;21182;-60
2021/01/19 04:24:23;;;;;;;25.63;9.83;;;;;;;-15.45;69.01;101661.30;1776810;80;21056;-61
2021/01/19 04:26:50;;;;;;;31.87;10.10;;;;;;;-15.39;68.90;101662.22;1764321;81;21058;-60
2021/01/19 04:29:18;;;;;;;34.70;10.73;;;;;;;-15.38;68.81;101658.47;1775734;80;21127;-60
2021/01/19 04:31:46;;;;;;;29.10;9.70;;;;;;;-15.36;68.77;101662.47;1764246;81;21690;-60
2021/01/19 04:34:13;;;;;;;32.10;9.87;;;;;;;-15.35;68.63;101659.12;1764185;81;21066;-59
2021/01/19 04:36:42;;;;;;;34.33;9.73;;;;;;;-15.37;68.39;101670.56;1765435;80;21085;-60
2021/01/19 04:39:09;;;;;;;31.53;10.30;;;;;;;-15.37;68.31;101666.70;1789505;80;21042;-60
2021/01/19 04:41:37;;;;;;;36.80;10.43;;;;;;;-15.38;68.22;101664.90;1821901;78;21139;-60
2021/01/19 04:44:05;;;;;;;31.90;10.03;;;;;;;-15.38;68.16;101662.33;1811469;78;21700;-60
2021/01/19 04:46:32;;;;;;;44.27;10.27;;;;;;;-15.43;67.99;101648.19;1764790;78;21056;-60
2021/01/19 04:49:03;;;;;;;33.00;10.53;;;;;;;-15.47;67.98;101653.48;1821842;78;20965;-59
2021/01/19 04:51:34;;;;;;;36.97;10.10;;;;;;;-15.47;68.09;101658.99;1821910;78;21146;-60
2021/01/19 04:54:08;;;;;;;31.50;9.60;;;;;;;-15.48;68.20;101658.08;1822003;78;21469;-59
2021/01/19 04:56:38;;;;;;;;;;;;;;;-15.52;68.13;101646.14;1824544;78;21188;-60
2021/01/19 04:59:13;;;;;;;28.23;9.20;;;;;;;-15.65;68.25;101646.77;1789592;78;37581;-60
2021/01/19 05:02:17;;;;;;;27.53;10.23;;;;;;;-15.74;68.52;101653.31;1821861;78;21052;-59
2021/01/19 05:04:52;;;;;;;32.67;9.30;;;;;;;-15.87;68.89;101643.25;1821492;78;21167;-60
2021/01/19 05:07:33;;;;;;;38.73;11.00;;;;;;;-15.98;69.34;101650.47;1821882;78;21092;-60
2021/01/19 05:10:28;;;;;;;35.67;8.73;;;;;;;-16.05;69.68;101659.67;1821811;78;21079;-61
2021/01/19 05:13:01;;;;;;;43.63;10.83;;;;;;;-16.08;70.28;101660.33;1821960;78;21392;-61
2021/01/19 05:15:30;;;;;;;43.63;10.45;;;;;;;-16.11;70.69;101659.15;1821960;78;21044;-62
2021/01/19 05:17:58;;;;;;;47.40;10.53;;;;;;;-16.16;70.91;101668.64;1789463;80;21145;-60
2021/01/19 05:20:30;;;;;;;30.20;9.00;;;;;;;-16.17;71.28;101676.20;1765192;78;21086;-61
2021/01/19 05:22:56;;;;;;;40.47;11.63;;;;;;;-16.20;71.56;101679.42;1821783;78;21954;-59
2021/01/19 05:25:25;;;;;;;39.83;12.23;;;;;;;-16.23;71.88;101675.31;1821757;78;21162;-60
2021/01/19 05:27:53;;;;;;;38.27;12.07;;;;;;;-16.23;72.12;101689.44;1821908;78;21051;-60
2021/01/19 05:30:22;;;;;;;46.93;12.30;;;;;;;-16.23;72.38;101683.02;1765101;78;21574;-59
2021/01/19 05:32:50;;;;;;;58.80;13.43;;;;;;;-16.18;72.59;101683.39;1821881;78;21030;-60
2021/01/19 05:35:19;;;;;;;39.07;12.10;;;;;;;-16.10;72.75;101692.70;1821886;78;21522;-60
2021/01/19 05:37:57;;;;;;;41.17;11.67;;;;;;;-16.01;72.90;101690.92;1792920;78;21205;-60
2021/01/19 05:40:25;;;;;;;42.30;11.60;;;;;;;-15.91;72.95;101700.33;1801398;79;21577;-61
2021/01/19 05:42:53;;;;;;;41.97;13.20;;;;;;;-15.80;72.94;101705.45;1764148;81;21048;-60
2021/01/19 05:45:21;;;;;;;41.17;13.33;;;;;;;-15.74;72.80;101703.44;1776913;80;21063;-60
2021/01/19 05:47:50;;;;;;;38.57;12.53;;;;;;;-15.69;72.74;101702.16;1776739;80;22404;-60
2021/01/19 05:50:17;;;;;;;43.20;13.30;;;;;;;-15.64;72.72;101704.73;1776702;80;21127;-59
2021/01/19 05:52:45;;;;;;;43.83;13.93;;;;;;;-15.59;72.66;101702.16;1764237;81;21144;-60
2021/01/19 05:55:13;;;;;;;42.87;13.07;;;;;;;-15.52;72.63;101707.86;1776805;80;21039;-60
2021/01/19 05:57:40;;;;;;;37.23;12.00;;;;;;;-15.45;72.57;101717.89;1776847;80;21063;-60
2021/01/19 06:00:10;;;;;;;37.10;11.77;;;;;;;-15.42;72.39;101710.43;1764239;81;21368;-60
2021/01/19 06:02:42;;;;;;;39.70;12.93;;;;;;;-15.45;72.47;101708.52;1776890;80;21171;-60
2021/01/19 06:05:14;;;;;;;43.60;13.10;;;;;;;-15.39;72.69;101717.52;1776727;80;21127;-60
2021/01/19 06:07:48;;;;;;;40.27;13.23;;;;;;;-15.36;72.73;101709.69;1776545;80;21539;-60
2021/01/19 06:10:20;;;;;;;28.62;9.38;;;;;;;-15.37;72.80;101716.86;1764205;81;21093;-60
2021/01/19 06:12:48;;;;;;;38.80;13.03;;;;;;;-15.34;73.04;101714.58;1764399;81;21360;-61
2021/01/19 06:15:26;;;;;;;38.13;12.20;;;;;;;-15.32;73.27;101708.25;1745862;80;21232;-60
2021/01/19 06:17:53;;;;;;;39.43;12.50;;;;;;;-15.28;73.49;101708.66;1764356;81;21506;-60
2021/01/19 06:20:21;;;;;;;47.47;13.70;;;;;;;-15.19;73.55;101723.05;1776890;80;21065;-62
2021/01/19 06:22:50;;;;;;;36.93;12.60;;;;;;;-15.10;73.56;101719.08;1764344;81;21141;-60
2021/01/19 06:25:17;;;;;;;45.73;14.67;;;;;;;-15.04;73.50;101720.50;1776613;80;21188;-61
2021/01/19 06:27:45;;;;;;;50.00;16.40;;;;;;;-14.99;73.41;101718.32;1764115;81;21172;-60
2021/01/19 06:30:15;;;;;;;49.87;15.30;;;;;;;-14.93;73.34;101704.67;1775869;80;21063;-60
2021/01/19 06:32:49;;;;;;;56.13;16.20;;;;;;;-14.86;73.36;101699.25;1764451;81;21466;-60
2021/01/19 06:35:20;;;;;;;36.90;11.90;;;;;;;-14.75;73.23;101706.57;1776880;80;21103;-59
2021/01/19 06:37:52;;;;;;;46.13;14.60;;;;;;;-14.66;72.97;101710.67;1777059;80;21370;-60
2021/01/19 06:40:25;;;;;;;43.93;13.63;;;;;;;-14.64;72.74;101703.56;1821655;78;21105;-59
2021/01/19 06:43:00;;;;;;;46.20;15.50;;;;;;;-14.60;72.60;101708.59;1810668;79;22059;-60
2021/01/19 06:45:27;;;;;;;;;;;;;;;-14.59;72.54;101701.37;1813111;79;21100;-60
2021/01/19 06:47:56;;;;;;;48.33;13.57;;;;;;;-14.56;72.63;101702.91;1822038;78;20216;-60
2021/01/19 06:50:29;;;;;;;39.57;12.73;;;;;;;-14.50;72.59;101697.36;1810396;79;21340;-60
2021/01/19 06:53:21;;;;;;;37.63;10.93;;;;;;;-14.46;72.60;101700.32;1810468;79;21125;-59
2021/01/19 06:56:13;;;;;;;39.63;11.03;;;;;;;-14.44;72.73;101703.92;1760506;80;21145;-60
2021/01/19 06:58:54;;;;;;;39.95;13.72;;;;;;;-14.44;72.69;101709.08;1810564;79;26630;-60
2021/01/19 07:01:28;;;;;;;49.03;15.27;;;;;;;-14.46;72.60;101705.47;1810411;79;21055;-60
2021/01/19 07:04:26;;;;;;;51.37;15.72;;;;;;;-14.40;72.63;101708.91;1789604;80;21192;-61
2021/01/19 07:07:07;;;;;;;44.90;15.27;;;;;;;-14.32;72.60;101710.83;1818103;78;21102;-61
2021/01/19 07:10:08;;;;;;;33.60;10.23;;;;;;;-14.18;72.56;101718.01;1810430;78;21624;-59
2021/01/19 07:13:05;;;;;;;41.70;13.80;;;;;;;-14.09;72.22;101706.62;1826632;78;21638;-60
2021/01/19 07:16:06;;;;;;;38.50;11.93;;;;;;;-14.07;71.86;101721.45;1786692;80;21197;-60
2021/01/19 07:18:44;;;;;;;42.70;14.10;;;;;;;-14.09;71.66;101710.12;1795300;80;21327;-60
2021/01/19 07:21:13;;;;;;;45.83;16.40;;;;;;;-14.12;71.65;101715.91;1820829;78;21054;-60
2021/01/19 07:23:58;;;;;;;33.47;11.37;;;;;;;-14.12;71.78;101707.30;1787337;79;21050;-61
2021/01/19 07:26:37;;;;;;;48.57;13.47;;;;;;;-14.10;72.07;101713.48;1788280;79;21117;-60
2021/01/19 07:29:06;;;;;;;43.00;13.13;;;;;;;-14.12;72.34;101715.03;1813351;78;21200;-60
2021/01/19 07:31:33;;;;;;;35.27;11.77;;;;;;;-14.12;72.48;101723.65;1815455;78;21364;-60
2021/01/19 07:34:02;;;;;;;43.33;12.43;;;;;;;-14.08;72.59;101713.58;1817943;78;21114;-61
2021/01/19 07:36:31;;;;;;;38.70;12.93;;;;;;;-14.03;72.33;101721.31;1792682;80;21149;-60
2021/01/19 07:38:59;;;;;;;48.57;10.37;;;;;;;-14.00;72.29;101724.14;1760803;78;21109;-60
2021/01/19 07:41:32;;;;;;;38.77;12.83;;;;;;;-13.97;71.86;101714.06;1782071;80;21205;-59
2021/01/19 07:44:00;;;;;;;43.38;11.08;;;;;;;-13.95;71.91;101716.38;1793756;79;21363;-61
2021/01/19 07:46:32;;;;;;;39.10;12.57;;;;;;;-13.91;71.99;101713.25;1784221;80;21511;-59
2021/01/19 07:49:06;;;;;;;47.83;16.60;;;;;;;-13.88;71.80;101716.07;1805139;79;21062;-60
2021/01/19 07:51:43;;;;;;;46.95;16.45;;;;;;;-13.80;71.72;101733.86;1787566;80;26086;-60
2021/01/19 07:54:23;;;;;;;42.07;14.57;;;;;;;-13.69;71.55;101727.84;1805237;79;21045;-60
2021/01/19 07:56:52;;;;;;;43.00;15.47;;;;;;;-13.57;71.17;101726.62;1787387;80;21140;-61
2021/01/19 07:59:20;;;;;;;54.53;16.53;;;;;;;-13.47;70.75;101732.11;1805248;79;21498;-60
2021/01/19 08:01:59;;;;;;;36.73;13.37;;;;;;;-13.38;70.63;101735.36;1805294;79;20983;-61
2021/01/19 08:04:29;;;;;;;49.60;17.23;;;;;;;-13.27;70.51;101737.11;1787356;80;21153;-60
2021/01/19 08:06:57;;;;;;;49.37;16.63;;;;;;;-13.08;70.41;101738.53;1794874;79;21142;-60
2021/01/19 08:09:25;;;;;;;41.57;14.17;;;;;;;-12.90;70.06;101736.86;1777503;80;21235;-61
2021/01/19 08:12:12;;;;;;;41.07;13.10;;;;;;;-12.76;69.40;101749.52;1736401;80;21060;-61
2021/01/19 08:14:43;;;;;;;33.73;12.83;;;;;;;-12.71;68.68;101752.97;1793521;80;20993;-60
2021/01/19 08:17:11;;;;;;;50.03;15.20;;;;;;;-12.69;68.53;101755.27;1792799;80;21477;-59
2021/01/19 08:19:45;;;;;;;46.77;15.70;;;;;;;-12.61;68.44;101758.41;1780752;80;21495;-60
2021/01/19 08:22:13;;;;;;;44.67;15.50;;;;;;;-12.46;68.40;101766.44;1793286;80;22404;-59
2021/01/19 08:24:42;;;;;;;56.83;18.03;;;;;;;-12.28;68.16;101763.02;1785496;80;21519;-62
2021/01/19 08:27:10;;;;;;;50.93;16.93;;;;;;;-12.18;67.56;101754.25;1777095;80;21078;-60
2021/01/19 08:29:38;;;;;;;53.40;17.93;;;;;;;-12.09;67.38;101753.62;1821139;78;21486;-60
2021/01/19 08:32:08;;;;;;;52.43;17.10;;;;;;;-11.96;67.24;101751.91;1789584;80;21637;-60
2021/01/19 08:34:41;;;;;;;63.53;20.97;;;;;;;-11.83;66.98;101758.45;1789523;80;22315;-61
2021/01/19 08:37:10;;;;;;;49.20;17.00;;;;;;;-11.68;66.46;101752.22;1789400;80;20975;-60
2021/01/19 08:39:37;;;;;;;46.17;16.47;;;;;;;-11.59;65.99;101750.67;1777604;79;21107;-61
2021/01/19 08:42:10;;;;;;;52.23;17.13;;;;;;;-11.49;65.68;101750.02;1786452;80;21158;-61
2021/01/19 08:44:40;;;;;;;50.93;17.57;;;;;;;-11.40;65.32;101754.16;1810307;79;21139;-60
2021/01/19 08:47:07;;;;;;;51.67;17.23;;;;;;;-11.37;64.55;101739.25;1810468;79;21492;-59
2021/01/19 08:49:37;;;;;;;56.27;18.50;;;;;;;-11.41;64.27;101741.09;1788191;80;21145;-63
2021/01/19 08:52:05;;;;;;;53.63;17.13;;;;;;;-11.47;64.01;101740.67;1810333;79;21178;-60
2021/01/19 08:54:34;;;;;;;53.93;17.60;;;;;;;-11.54;63.82;101740.62;1810277;78;21063;-59
2021/01/19 08:57:02;;;;;;;63.30;19.70;;;;;;;-11.58;64.00;101733.06;1789455;80;21070;-60
2021/01/19 08:59:31;;;;;;;59.60;18.77;;;;;;;-11.50;64.23;101742.64;1807635;79;21368;-58
2021/01/19 09:02:01;;;;;;;57.30;18.80;;;;;;;-11.40;64.38;101737.71;1789340;80;21078;-58
2021/01/19 09:04:29;;;;;;;56.00;18.17;;;;;;;-11.31;64.17;101733.58;1810360;79;21122;-58
2021/01/19 09:07:10;;;;;;;58.60;19.17;;;;;;;-11.23;63.98;101735.91;1810165;79;21122;-58
2021/01/19 09:09:40;;;;;;;56.73;19.03;;;;;;;-11.17;63.84;101735.82;1810386;79;21173;-57
2021/01/19 09:12:20;;;;;;;50.90;17.10;;;;;;;-11.10;63.47;101723.41;1758995;80;22306;-59
2021/01/19 09:14:50;;;;;;;49.87;16.70;;;;;;;-11.05;62.95;101722.44;1810333;79;21146;-58
2021/01/19 09:17:26;;;;;;;48.73;17.83;;;;;;;-11.10;62.45;101724.70;1810332;79;21061;-58
2021/01/19 09:20:10;;;;;;;37.73;14.17;;;;;;;-11.20;62.50;101717.48;1810305;79;21471;-58
2021/01/19 09:22:38;;;;;;;39.77;14.27;;;;;;;-11.25;62.32;101716.78;1789639;80;21532;-58
2021/01/19 09:25:07;;;;;;;45.43;15.70;;;;;;;-11.32;62.02;101713.27;1810364;79;21536;-58
2021/01/19 09:27:35;;;;;;;35.63;12.20;;;;;;;-11.37;62.14;101719.83;1810195;79;21069;-59
2021/01/19 09:30:11;;;;;;;47.00;16.23;;;;;;;-11.43;62.08;101709.02;1810288;79;21079;-58
2021/01/19 09:32:40;;;;;;;31.57;11.13;;;;;;;-11.50;62.35;101714.16;1789570;80;21185;-59
2021/01/19 09:35:09;;;;;;;41.27;14.37;;;;;;;-11.53;62.63;101702.30;1810445;79;21143;-59
2021/01/19 09:37:37;;;;;;;46.50;14.27;;;;;;;-11.54;62.86;101704.39;1789640;80;21483;-58
2021/01/19 09:40:06;;;;;;;49.47;15.40;;;;;;;-11.56;63.29;101699.13;1821918;78;21063;-59
2021/01/19 09:42:39;;;;;;;40.00;13.90;;;;;;;-11.51;63.53;101703.30;1821944;78;21033;-58
2021/01/19 09:45:11;;;;;;;45.77;15.17;;;;;;;-11.38;63.91;101697.33;1821961;78;21095;-58
2021/01/19 09:47:40;;;;;;;58.63;19.23;;;;;;;-11.27;63.83;101698.95;1821945;78;21099;-59
2021/01/19 09:50:11;;;;;;;57.17;18.87;;;;;;;-11.15;63.95;101695.42;1789866;80;22244;-58
2021/01/19 09:52:45;;;;;;;60.67;18.13;;;;;;;-10.97;64.16;101694.05;1821996;78;21562;-58
2021/01/19 09:55:14;;;;;;;55.00;17.30;;;;;;;-10.71;64.10;101702.71;1822262;78;21518;-59
2021/01/19 09:57:43;;;;;;;47.43;16.77;;;;;;;-10.53;63.45;101697.84;1821897;78;21075;-58
2021/01/19 10:00:12;;;;;;;45.00;15.10;;;;;;;-10.42;63.06;101693.36;1822039;78;21494;-58
2021/01/19 10:02:40;;;;;;;47.43;16.23;;;;;;;-10.31;62.63;101693.11;1821966;78;21455;-57
2021/01/19 10:05:09;;;;;;;37.77;13.07;;;;;;;-10.22;62.35;101696.33;1821924;78;21213;-58
2021/01/19 10:07:36;;;;;;;42.40;13.80;;;;;;;-10.18;62.01;101690.53;1821860;78;21118;-57
2021/01/19 10:10:37;;;;;;;50.73;15.17;;;;;;;-10.19;61.71;101680.95;1821957;78;21070;-58
2021/01/19 10:13:08;;;;;;;39.37;13.30;;;;;;;-10.17;61.76;101688.44;1725673;83;21094;-58
2021/01/19 10:15:36;;;;;;;40.83;11.50;;;;;;;-10.18;61.22;101688.32;1725630;83;21369;-58
2021/01/19 10:18:04;;;;;;;32.60;11.60;;;;;;;-10.25;60.94;101681.87;1725567;83;21148;-58
2021/01/19 10:20:36;;;;;;;44.27;13.20;;;;;;;-10.37;60.82;101687.16;1725648;83;21126;-58
2021/01/19 10:23:05;;;;;;;47.37;15.13;;;;;;;-10.51;61.13;101684.95;1725571;83;21145;-58
2021/01/19 10:25:34;;;;;;;41.70;14.77;;;;;;;-10.57;61.65;101676.78;1725586;83;21165;-58
2021/01/19 10:28:04;;;;;;;37.90;13.90;;;;;;;-10.50;62.22;101676.38;1725599;83;21426;-58
2021/01/19 10:30:36;;;;;;;51.10;15.50;;;;;;;-10.36;62.46;101674.69;1725571;83;21549;-59
2021/01/19 10:33:03;;;;;;;45.10;14.80;;;;;;;-10.25;62.30;101672.79;1725554;83;21085;-59
2021/01/19 10:35:36;;;;;;;39.33;14.47;;;;;;;-10.14;62.32;101671.77;1725669;83;21160;-58
2021/01/19 10:38:08;;;;;;;38.60;13.67;;;;;;;-10.03;62.13;101665.96;1716294;83;21730;-58
2021/01/19 10:40:37;;;;;;;51.03;14.97;;;;;;;-9.92;62.06;101674.43;1683649;85;21165;-59
2021/01/19 10:43:09;;;;;;;47.30;15.80;;;;;;;-9.80;61.90;101670.41;1683462;85;21114;-58
2021/01/19 10:45:42;;;;;;;47.80;15.67;;;;;;;-9.69;61.85;101658.10;1683595;85;21510;-59
2021/01/19 10:48:21;;;;;;;41.13;15.73;;;;;;;-9.59;61.56;101647.50;1683538;85;21212;-58
2021/01/19 10:50:49;;;;;;;40.83;14.60;;;;;;;-9.53;61.21;101647.86;1683606;85;21173;-58
2021/01/19 10:53:28;;;;;;;44.23;16.57;;;;;;;-9.54;60.84;101652.56;1683596;85;21620;-58
2021/01/19 10:55:56;;;;;;;43.23;15.10;;;;;;;-9.57;60.75;101645.89;1682774;85;21763;-58
2021/01/19 10:58:23;;;;;;;33.67;13.97;;;;;;;-9.55;60.92;101646.87;1683731;85;21225;-59
2021/01/19 11:00:51;;;;;;;43.70;15.27;;;;;;;-9.51;60.83;101644.95;1683613;85;21232;-59
2021/01/19 11:03:18;;;;;;;43.37;14.77;;;;;;;-9.50;60.54;101642.86;1683678;85;21213;-57
2021/01/19 11:05:50;;;;;;;39.07;14.07;;;;;;;-9.51;60.54;101638.85;1683563;85;21315;-58
2021/01/19 11:08:16;;;;;;;36.20;13.43;;;;;;;-9.46;60.59;101637.84;1683440;85;21177;-58
2021/01/19 11:10:46;;;;;;;31.77;11.87;;;;;;;-9.45;60.33;101631.84;1683418;84;21114;-58
2021/01/19 11:13:14;;;;;;;40.00;14.57;;;;;;;-9.55;59.99;101622.21;1680363;85;21102;-58
2021/01/19 11:15:41;;;;;;;38.87;13.90;;;;;;;-9.66;60.22;101623.23;1702549;83;21121;-57
2021/01/19 11:18:10;;;;;;;26.83;10.23;;;;;;;-9.67;60.53;101623.66;1725881;83;21614;-58
2021/01/19 11:20:39;;;;;;;30.50;10.70;;;;;;;-9.69;60.14;101624.35;1693235;84;21094;-58
2021/01/19 11:23:07;;;;;;;33.83;11.07;;;;;;;-9.76;60.19;101619.59;1673957;85;21106;-58